Terminal Aerodrome Forecast
Issued by NWS

Home | Current Version | Previous Version | Text Only | Print | Product List | Glossary Off
Versions: 1 2 3 4 5 6 7 8 9 10 11 12 13

000
FTUS43 KICT 170500
TAFRSL
TAF
KRSL 170522Z 1706/1806 02011KT P6SM OVC100
     FM171200 05008KT P6SM OVC100
     FM172200 12009KT P6SM SCT100=

USA.gov is the U.S. government's official web portal to all federal, state and local government web resources and services.